sensor_id;sensor_type;location;lat;lon;timestamp;temperature;humidity
70214;DHT22;60138;55.808;37.078;2023-07-20T00:01:27;12.73;83.54
70214;DHT22;60138;55.808;37.078;2023-07-20T00:03:53;12.71;83.45
70214;DHT22;60138;55.808;37.078;2023-07-20T00:06:19;12.66;83.30
70214;DHT22;60138;55.808;37.078;2023-07-20T00:08:44;12.63;83.37
70214;DHT22;60138;55.808;37.078;2023-07-20T00:11:10;12.61;83.41
70214;DHT22;60138;55.808;37.078;2023-07-20T00:13:36;12.59;83.43
70214;DHT22;60138;55.808;37.078;2023-07-20T00:16:01;12.57;83.49
70214;DHT22;60138;55.808;37.078;2023-07-20T00:18:27;12.57;83.56
70214;DHT22;60138;55.808;37.078;2023-07-20T00:20:53;12.53;83.60
70214;DHT22;60138;55.808;37.078;2023-07-20T00:23:19;12.51;83.65
70214;DHT22;60138;55.808;37.078;2023-07-20T00:25:44;12.48;83.68
70214;DHT22;60138;55.808;37.078;2023-07-20T00:28:10;12.46;83.68
70214;DHT22;60138;55.808;37.078;2023-07-20T00:30:38;12.45;83.81
70214;DHT22;60138;55.808;37.078;2023-07-20T00:33:04;12.44;83.84
70214;DHT22;60138;55.808;37.078;2023-07-20T00:35:29;12.43;83.91
70214;DHT22;60138;55.808;37.078;2023-07-20T00:37:55;12.42;83.95
70214;DHT22;60138;55.808;37.078;2023-07-20T00:40:21;12.42;84.01
70214;DHT22;60138;55.808;37.078;2023-07-20T00:42:47;12.41;84.02
70214;DHT22;60138;55.808;37.078;2023-07-20T00:45:12;12.37;83.97
70214;DHT22;60138;55.808;37.078;2023-07-20T00:47:38;12.36;84.03
70214;DHT22;60138;55.808;37.078;2023-07-20T00:50:05;12.32;84.00
70214;DHT22;60138;55.808;37.078;2023-07-20T00:52:32;12.30;84.03
70214;DHT22;60138;55.808;37.078;2023-07-20T00:54:58;12.27;84.06
70214;DHT22;60138;55.808;37.078;2023-07-20T00:57:24;12.25;84.07
70214;DHT22;60138;55.808;37.078;2023-07-20T00:59:50;12.23;84.10
70214;DHT22;60138;55.808;37.078;2023-07-20T01:02:16;12.21;84.13
70214;DHT22;60138;55.808;37.078;2023-07-20T01:04:42;12.19;84.14
70214;DHT22;60138;55.808;37.078;2023-07-20T01:07:19;12.17;84.21
70214;DHT22;60138;55.808;37.078;2023-07-20T01:12:42;12.14;84.27
70214;DHT22;60138;55.808;37.078;2023-07-20T01:15:09;12.11;84.20
70214;DHT22;60138;55.808;37.078;2023-07-20T01:17:35;12.08;84.22
70214;DHT22;60138;55.808;37.078;2023-07-20T01:20:02;12.07;84.25
70214;DHT22;60138;55.808;37.078;2023-07-20T01:23:00;12.05;84.24
70214;DHT22;60138;55.808;37.078;2023-07-20T01:28:38;12.03;84.32
70214;DHT22;60138;55.808;37.078;2023-07-20T01:31:25;12.05;84.45
70214;DHT22;60138;55.808;37.078;2023-07-20T01:33:57;12.07;84.55
70214;DHT22;60138;55.808;37.078;2023-07-20T01:36:24;12.11;84.60
70214;DHT22;60138;55.808;37.078;2023-07-20T01:38:51;12.11;84.58
70214;DHT22;60138;55.808;37.078;2023-07-20T01:41:18;12.12;84.61
70214;DHT22;60138;55.808;37.078;2023-07-20T01:43:44;12.12;84.61
70214;DHT22;60138;55.808;37.078;2023-07-20T01:46:10;12.13;84.66
70214;DHT22;60138;55.808;37.078;2023-07-20T01:48:36;12.15;84.66
70214;DHT22;60138;55.808;37.078;2023-07-20T01:51:01;12.18;84.71
70214;DHT22;60138;55.808;37.078;2023-07-20T01:53:27;12.23;84.81
70214;DHT22;60138;55.808;37.078;2023-07-20T01:55:53;12.32;84.80
70214;DHT22;60138;55.808;37.078;2023-07-20T01:58:19;12.43;84.81
70214;DHT22;60138;55.808;37.078;2023-07-20T02:00:45;12.49;84.84
70214;DHT22;60138;55.808;37.078;2023-07-20T02:03:11;12.50;84.71
70214;DHT22;60138;55.808;37.078;2023-07-20T02:05:37;12.49;84.57
70214;DHT22;60138;55.808;37.078;2023-07-20T02:08:03;12.50;84.52
70214;DHT22;60138;55.808;37.078;2023-07-20T02:10:29;12.49;84.52
70214;DHT22;60138;55.808;37.078;2023-07-20T02:12:55;12.51;84.50
70214;DHT22;60138;55.808;37.078;2023-07-20T02:15:22;12.55;84.56
70214;DHT22;60138;55.808;37.078;2023-07-20T02:17:48;12.64;84.62
70214;DHT22;60138;55.808;37.078;2023-07-20T02:20:13;12.78;84.64
70214;DHT22;60138;55.808;37.078;2023-07-20T02:22:40;12.91;84.64
70214;DHT22;60138;55.808;37.078;2023-07-20T02:25:06;12.96;84.46
70214;DHT22;60138;55.808;37.078;2023-07-20T02:27:35;12.96;84.27
70214;DHT22;60138;55.808;37.078;2023-07-20T02:30:01;12.91;84.19
70214;DHT22;60138;55.808;37.078;2023-07-20T02:32:33;12.86;84.00
70214;DHT22;60138;55.808;37.078;2023-07-20T02:34:59;12.84;84.04
70214;DHT22;60138;55.808;37.078;2023-07-20T02:37:25;12.81;84.09
70214;DHT22;60138;55.808;37.078;2023-07-20T02:39:51;12.80;84.10
70214;DHT22;60138;55.808;37.078;2023-07-20T02:42:16;12.79;84.03
70214;DHT22;60138;55.808;37.078;2023-07-20T02:44:42;12.82;83.80
70214;DHT22;60138;55.808;37.078;2023-07-20T02:47:08;12.88;83.89
70214;DHT22;60138;55.808;37.078;2023-07-20T02:49:34;12.95;83.95
70214;DHT22;60138;55.808;37.078;2023-07-20T02:52:00;13.03;83.94
70214;DHT22;60138;55.808;37.078;2023-07-20T02:54:26;13.16;83.87
70214;DHT22;60138;55.808;37.078;2023-07-20T02:56:52;13.33;83.91
70214;DHT22;60138;55.808;37.078;2023-07-20T02:59:17;13.48;83.69
70214;DHT22;60138;55.808;37.078;2023-07-20T03:01:43;13.61;83.74
70214;DHT22;60138;55.808;37.078;2023-07-20T03:04:09;13.69;83.23
70214;DHT22;60138;55.808;37.078;2023-07-20T03:06:35;13.81;82.68
70214;DHT22;60138;55.808;37.078;2023-07-20T03:09:00;13.92;82.55
70214;DHT22;60138;55.808;37.078;2023-07-20T03:11:26;14.06;82.49
70214;DHT22;60138;55.808;37.078;2023-07-20T03:13:52;14.22;81.61
70214;DHT22;60138;55.808;37.078;2023-07-20T03:16:19;14.42;81.87
70214;DHT22;60138;55.808;37.078;2023-07-20T03:18:44;14.58;81.23
70214;DHT22;60138;55.808;37.078;2023-07-20T03:21:11;14.77;81.08
70214;DHT22;60138;55.808;37.078;2023-07-20T03:23:37;14.92;79.17
70214;DHT22;60138;55.808;37.078;2023-07-20T03:26:02;15.07;77.67
70214;DHT22;60138;55.808;37.078;2023-07-20T03:28:28;15.17;79.17
70214;DHT22;60138;55.808;37.078;2023-07-20T03:30:58;15.23;76.89
70214;DHT22;60138;55.808;37.078;2023-07-20T03:33:26;15.29;78.86
70214;DHT22;60138;55.808;37.078;2023-07-20T03:35:53;15.33;79.23
70214;DHT22;60138;55.808;37.078;2023-07-20T03:38:18;15.37;77.88
70214;DHT22;60138;55.808;37.078;2023-07-20T03:40:54;15.41;78.77
70214;DHT22;60138;55.808;37.078;2023-07-20T03:43:20;15.44;79.14
70214;DHT22;60138;55.808;37.078;2023-07-20T03:45:47;15.48;78.26
70214;DHT22;60138;55.808;37.078;2023-07-20T03:48:13;15.54;79.21
70214;DHT22;60138;55.808;37.078;2023-07-20T03:50:39;15.56;79.27
70214;DHT22;60138;55.808;37.078;2023-07-20T03:53:04;15.57;79.00
70214;DHT22;60138;55.808;37.078;2023-07-20T03:55:30;15.55;78.75
70214;DHT22;60138;55.808;37.078;2023-07-20T03:57:56;15.51;78.85
70214;DHT22;60138;55.808;37.078;2023-07-20T04:00:22;15.40;79.16
70214;DHT22;60138;55.808;37.078;2023-07-20T04:02:49;15.30;79.36
70214;DHT22;60138;55.808;37.078;2023-07-20T04:05:15;15.18;79.61
70214;DHT22;60138;55.808;37.078;2023-07-20T04:07:40;15.06;79.32
70214;DHT22;60138;55.808;37.078;2023-07-20T04:10:06;14.92;79.37
70214;DHT22;60138;55.808;37.078;2023-07-20T04:12:35;14.82;79.66
70214;DHT22;60138;55.808;37.078;2023-07-20T04:15:01;14.73;79.92
70214;DHT22;60138;55.808;37.078;2023-07-20T04:17:30;14.66;79.76
70214;DHT22;60138;55.808;37.078;2023-07-20T04:19:56;14.63;79.61
70214;DHT22;60138;55.808;37.078;2023-07-20T04:22:22;14.63;80.01
70214;DHT22;60138;55.808;37.078;2023-07-20T04:24:48;14.58;79.99
70214;DHT22;60138;55.808;37.078;2023-07-20T04:27:14;14.57;80.01
70214;DHT22;60138;55.808;37.078;2023-07-20T04:29:40;14.58;80.34
70214;DHT22;60138;55.808;37.078;2023-07-20T04:32:06;14.56;78.53
70214;DHT22;60138;55.808;37.078;2023-07-20T04:34:32;14.62;79.90
70214;DHT22;60138;55.808;37.078;2023-07-20T04:36:58;14.64;80.01
70214;DHT22;60138;55.808;37.078;2023-07-20T04:39:26;14.65;80.15
70214;DHT22;60138;55.808;37.078;2023-07-20T04:41:53;14.67;79.80
70214;DHT22;60138;55.808;37.078;2023-07-20T04:44:19;14.68;79.93
70214;DHT22;60138;55.808;37.078;2023-07-20T04:46:44;14.67;80.17
70214;DHT22;60138;55.808;37.078;2023-07-20T04:49:10;14.71;79.80
70214;DHT22;60138;55.808;37.078;2023-07-20T04:51:40;14.77;79.39
70214;DHT22;60138;55.808;37.078;2023-07-20T04:54:07;14.80;79.75
70214;DHT22;60138;55.808;37.078;2023-07-20T04:56:37;14.82;79.52
70214;DHT22;60138;55.808;37.078;2023-07-20T04:59:06;14.87;74.66
70214;DHT22;60138;55.808;37.078;2023-07-20T05:01:32;15.00;76.06
70214;DHT22;60138;55.808;37.078;2023-07-20T05:03:58;15.04;77.13
70214;DHT22;60138;55.808;37.078;2023-07-20T05:06:23;15.12;73.67
70214;DHT22;60138;55.808;37.078;2023-07-20T05:08:49;15.25;72.37
70214;DHT22;60138;55.808;37.078;2023-07-20T05:11:15;15.34;73.80
70214;DHT22;60138;55.808;37.078;2023-07-20T05:13:41;15.40;75.62
70214;DHT22;60138;55.808;37.078;2023-07-20T05:16:07;15.41;75.04
70214;DHT22;60138;55.808;37.078;2023-07-20T05:18:33;15.45;76.06
70214;DHT22;60138;55.808;37.078;2023-07-20T05:21:00;15.43;76.39
70214;DHT22;60138;55.808;37.078;2023-07-20T05:23:25;15.51;74.45
70214;DHT22;60138;55.808;37.078;2023-07-20T05:25:55;15.58;74.45
70214;DHT22;60138;55.808;37.078;2023-07-20T05:28:22;15.62;75.02
70214;DHT22;60138;55.808;37.078;2023-07-20T05:30:47;15.69;74.66
70214;DHT22;60138;55.808;37.078;2023-07-20T05:33:13;15.72;69.23
70214;DHT22;60138;55.808;37.078;2023-07-20T05:35:39;15.78;68.81
70214;DHT22;60138;55.808;37.078;2023-07-20T05:38:05;15.85;70.68
70214;DHT22;60138;55.808;37.078;2023-07-20T05:40:31;15.86;68.34
70214;DHT22;60138;55.808;37.078;2023-07-20T05:42:56;15.99;69.96
70214;DHT22;60138;55.808;37.078;2023-07-20T05:45:22;16.04;70.77
70214;DHT22;60138;55.808;37.078;2023-07-20T05:47:48;16.08;65.29
70214;DHT22;60138;55.808;37.078;2023-07-20T05:50:14;16.18;66.93
70214;DHT22;60138;55.808;37.078;2023-07-20T05:52:40;16.29;67.28
70214;DHT22;60138;55.808;37.078;2023-07-20T05:55:06;16.34;68.13
70214;DHT22;60138;55.808;37.078;2023-07-20T05:57:33;16.37;64.01
70214;DHT22;60138;55.808;37.078;2023-07-20T05:59:58;16.50;64.40
70214;DHT22;60138;55.808;37.078;2023-07-20T06:02:24;16.59;63.33
70214;DHT22;60138;55.808;37.078;2023-07-20T06:04:50;16.64;65.46
70214;DHT22;60138;55.808;37.078;2023-07-20T06:07:16;16.65;68.00
70214;DHT22;60138;55.808;37.078;2023-07-20T06:09:42;16.71;69.11
70214;DHT22;60138;55.808;37.078;2023-07-20T06:12:08;16.74;63.31
70214;DHT22;60138;55.808;37.078;2023-07-20T06:14:34;16.76;63.33
70214;DHT22;60138;55.808;37.078;2023-07-20T06:17:00;16.84;63.79
70214;DHT22;60138;55.808;37.078;2023-07-20T06:19:26;16.87;64.57
70214;DHT22;60138;55.808;37.078;2023-07-20T06:21:52;16.88;62.06
70214;DHT22;60138;55.808;37.078;2023-07-20T06:24:18;16.91;59.96
70214;DHT22;60138;55.808;37.078;2023-07-20T06:26:43;16.92;59.45
70214;DHT22;60138;55.808;37.078;2023-07-20T06:29:09;16.96;62.41
70214;DHT22;60138;55.808;37.078;2023-07-20T06:31:35;17.02;62.56
70214;DHT22;60138;55.808;37.078;2023-07-20T06:34:02;17.08;58.32
70214;DHT22;60138;55.808;37.078;2023-07-20T06:36:28;17.11;58.07
70214;DHT22;60138;55.808;37.078;2023-07-20T06:38:55;17.17;59.39
70214;DHT22;60138;55.808;37.078;2023-07-20T06:41:21;17.13;59.07
70214;DHT22;60138;55.808;37.078;2023-07-20T06:43:47;17.19;58.98
70214;DHT22;60138;55.808;37.078;2023-07-20T06:46:13;17.22;59.59
70214;DHT22;60138;55.808;37.078;2023-07-20T06:48:39;17.32;58.33
70214;DHT22;60138;55.808;37.078;2023-07-20T06:51:04;17.35;58.02
70214;DHT22;60138;55.808;37.078;2023-07-20T06:53:30;17.43;60.85
70214;DHT22;60138;55.808;37.078;2023-07-20T06:55:56;17.49;57.56
70214;DHT22;60138;55.808;37.078;2023-07-20T06:58:23;17.63;57.19
70214;DHT22;60138;55.808;37.078;2023-07-20T07:00:48;17.64;64.28
70214;DHT22;60138;55.808;37.078;2023-07-20T07:03:14;17.63;56.70
70214;DHT22;60138;55.808;37.078;2023-07-20T07:05:40;17.70;59.71
70214;DHT22;60138;55.808;37.078;2023-07-20T07:08:06;17.81;58.77
70214;DHT22;60138;55.808;37.078;2023-07-20T07:10:33;17.88;58.16
70214;DHT22;60138;55.808;37.078;2023-07-20T07:12:58;17.93;61.31
70214;DHT22;60138;55.808;37.078;2023-07-20T07:15:24;17.91;61.41
70214;DHT22;60138;55.808;37.078;2023-07-20T07:17:50;17.99;59.60
70214;DHT22;60138;55.808;37.078;2023-07-20T07:20:16;18.04;56.10
70214;DHT22;60138;55.808;37.078;2023-07-20T07:22:41;18.17;60.25
70214;DHT22;60138;55.808;37.078;2023-07-20T07:25:07;18.24;54.33
70214;DHT22;60138;55.808;37.078;2023-07-20T07:27:33;18.40;59.22
70214;DHT22;60138;55.808;37.078;2023-07-20T07:29:59;18.40;57.90
70214;DHT22;60138;55.808;37.078;2023-07-20T07:32:26;18.42;59.90
70214;DHT22;60138;55.808;37.078;2023-07-20T07:34:52;18.42;52.64
70214;DHT22;60138;55.808;37.078;2023-07-20T07:37:18;18.52;52.68
70214;DHT22;60138;55.808;37.078;2023-07-20T07:39:43;18.64;57.76
70214;DHT22;60138;55.808;37.078;2023-07-20T07:42:09;18.79;58.37
70214;DHT22;60138;55.808;37.078;2023-07-20T07:44:35;18.96;53.45
70214;DHT22;60138;55.808;37.078;2023-07-20T07:47:00;19.13;58.42
70214;DHT22;60138;55.808;37.078;2023-07-20T07:49:26;19.28;49.82
70214;DHT22;60138;55.808;37.078;2023-07-20T07:51:52;19.71;57.62
70214;DHT22;60138;55.808;37.078;2023-07-20T07:54:18;19.97;57.94
70214;DHT22;60138;55.808;37.078;2023-07-20T07:56:44;20.16;57.85
70214;DHT22;60138;55.808;37.078;2023-07-20T07:59:09;20.34;57.18
70214;DHT22;60138;55.808;37.078;2023-07-20T08:01:35;20.44;54.56
70214;DHT22;60138;55.808;37.078;2023-07-20T08:04:01;20.56;53.58
70214;DHT22;60138;55.808;37.078;2023-07-20T08:06:27;20.57;54.23
70214;DHT22;60138;55.808;37.078;2023-07-20T08:08:52;20.47;51.43
70214;DHT22;60138;55.808;37.078;2023-07-20T08:11:19;20.41;55.23
70214;DHT22;60138;55.808;37.078;2023-07-20T08:13:45;20.56;58.03
70214;DHT22;60138;55.808;37.078;2023-07-20T08:16:11;20.73;58.93
70214;DHT22;60138;55.808;37.078;2023-07-20T08:18:37;20.93;58.16
70214;DHT22;60138;55.808;37.078;2023-07-20T08:21:03;21.10;59.44
70214;DHT22;60138;55.808;37.078;2023-07-20T08:23:32;21.16;48.93
70214;DHT22;60138;55.808;37.078;2023-07-20T08:25:59;21.27;56.84
70214;DHT22;60138;55.808;37.078;2023-07-20T08:28:25;21.44;53.14
70214;DHT22;60138;55.808;37.078;2023-07-20T08:30:51;21.60;52.47
70214;DHT22;60138;55.808;37.078;2023-07-20T08:33:18;21.65;57.19
70214;DHT22;60138;55.808;37.078;2023-07-20T08:35:44;21.54;57.03
70214;DHT22;60138;55.808;37.078;2023-07-20T08:38:09;21.43;59.37
70214;DHT22;60138;55.808;37.078;2023-07-20T08:40:43;21.29;56.24
70214;DHT22;60138;55.808;37.078;2023-07-20T08:43:11;21.31;46.96
70214;DHT22;60138;55.808;37.078;2023-07-20T08:45:39;21.40;54.32
70214;DHT22;60138;55.808;37.078;2023-07-20T08:48:06;21.48;55.37
70214;DHT22;60138;55.808;37.078;2023-07-20T08:50:33;21.36;52.81
70214;DHT22;60138;55.808;37.078;2023-07-20T08:52:59;21.31;52.16
70214;DHT22;60138;55.808;37.078;2023-07-20T08:55:26;21.24;55.23
70214;DHT22;60138;55.808;37.078;2023-07-20T08:58:00;21.01;47.86
70214;DHT22;60138;55.808;37.078;2023-07-20T09:00:26;21.00;55.36
70214;DHT22;60138;55.808;37.078;2023-07-20T09:02:53;21.14;52.70
70214;DHT22;60138;55.808;37.078;2023-07-20T09:05:20;21.18;52.53
70214;DHT22;60138;55.808;37.078;2023-07-20T09:07:46;20.95;47.17
70214;DHT22;60138;55.808;37.078;2023-07-20T09:10:13;20.69;47.02
70214;DHT22;60138;55.808;37.078;2023-07-20T09:12:40;20.29;50.55
70214;DHT22;60138;55.808;37.078;2023-07-20T09:15:07;20.03;54.87
70214;DHT22;60138;55.808;37.078;2023-07-20T09:17:34;19.90;56.90
70214;DHT22;60138;55.808;37.078;2023-07-20T09:20:04;19.92;57.03
70214;DHT22;60138;55.808;37.078;2023-07-20T09:22:31;19.98;58.32
70214;DHT22;60138;55.808;37.078;2023-07-20T09:24:58;20.00;58.65
70214;DHT22;60138;55.808;37.078;2023-07-20T09:27:46;19.92;59.12
70214;DHT22;60138;55.808;37.078;2023-07-20T09:30:14;19.84;58.57
70214;DHT22;60138;55.808;37.078;2023-07-20T09:32:48;19.84;58.93
70214;DHT22;60138;55.808;37.078;2023-07-20T09:35:15;19.96;59.62
70214;DHT22;60138;55.808;37.078;2023-07-20T09:38:01;20.00;56.66
70214;DHT22;60138;55.808;37.078;2023-07-20T09:40:28;20.16;55.07
70214;DHT22;60138;55.808;37.078;2023-07-20T09:42:54;20.19;57.78
70214;DHT22;60138;55.808;37.078;2023-07-20T09:45:20;20.37;57.42
70214;DHT22;60138;55.808;37.078;2023-07-20T09:47:46;20.66;53.56
70214;DHT22;60138;55.808;37.078;2023-07-20T09:50:12;20.91;54.55
70214;DHT22;60138;55.808;37.078;2023-07-20T09:52:39;21.14;58.32
70214;DHT22;60138;55.808;37.078;2023-07-20T09:55:06;21.31;55.17
70214;DHT22;60138;55.808;37.078;2023-07-20T09:57:33;21.22;50.86
70214;DHT22;60138;55.808;37.078;2023-07-20T09:59:59;21.54;52.64
70214;DHT22;60138;55.808;37.078;2023-07-20T10:02:32;21.57;47.05
70214;DHT22;60138;55.808;37.078;2023-07-20T10:05:02;21.33;47.85
70214;DHT22;60138;55.808;37.078;2023-07-20T10:07:31;21.24;49.50
70214;DHT22;60138;55.808;37.078;2023-07-20T10:09:59;21.28;51.76
70214;DHT22;60138;55.808;37.078;2023-07-20T10:12:30;21.27;47.76
70214;DHT22;60138;55.808;37.078;2023-07-20T10:18:17;21.51;51.34
70214;DHT22;60138;55.808;37.078;2023-07-20T10:20:44;21.30;46.10
70214;DHT22;60138;55.808;37.078;2023-07-20T10:23:12;21.02;46.49
70214;DHT22;60138;55.808;37.078;2023-07-20T10:25:38;20.94;49.87
70214;DHT22;60138;55.808;37.078;2023-07-20T10:28:05;20.86;49.89
70214;DHT22;60138;55.808;37.078;2023-07-20T10:30:31;20.70;48.90
70214;DHT22;60138;55.808;37.078;2023-07-20T10:32:57;20.56;45.96
70214;DHT22;60138;55.808;37.078;2023-07-20T10:35:22;20.72;52.00
70214;DHT22;60138;55.808;37.078;2023-07-20T10:38:00;20.84;48.99
70214;DHT22;60138;55.808;37.078;2023-07-20T10:40:27;21.05;52.30
70214;DHT22;60138;55.808;37.078;2023-07-20T10:43:21;21.09;53.29
70214;DHT22;60138;55.808;37.078;2023-07-20T10:45:50;21.19;54.42
70214;DHT22;60138;55.808;37.078;2023-07-20T10:48:23;21.21;54.51
70214;DHT22;60138;55.808;37.078;2023-07-20T10:51:09;21.28;54.98
70214;DHT22;60138;55.808;37.078;2023-07-20T10:53:35;21.35;55.71
70214;DHT22;60138;55.808;37.078;2023-07-20T10:56:15;21.37;54.19
70214;DHT22;60138;55.808;37.078;2023-07-20T10:58:41;21.37;56.26
70214;DHT22;60138;55.808;37.078;2023-07-20T11:01:08;21.42;55.34
70214;DHT22;60138;55.808;37.078;2023-07-20T11:03:39;21.57;54.22
70214;DHT22;60138;55.808;37.078;2023-07-20T11:09:10;21.74;55.35
70214;DHT22;60138;55.808;37.078;2023-07-20T11:11:43;21.38;54.55
70214;DHT22;60138;55.808;37.078;2023-07-20T11:14:23;20.46;54.21
70214;DHT22;60138;55.808;37.078;2023-07-20T11:16:52;19.75;58.13
70214;DHT22;60138;55.808;37.078;2023-07-20T11:19:20;18.61;64.59
70214;DHT22;60138;55.808;37.078;2023-07-20T11:21:47;17.76;67.79
70214;DHT22;60138;55.808;37.078;2023-07-20T11:24:17;17.26;68.65
70214;DHT22;60138;55.808;37.078;2023-07-20T11:29:16;16.95;69.16
70214;DHT22;60138;55.808;37.078;2023-07-20T11:31:43;16.91;70.67
70214;DHT22;60138;55.808;37.078;2023-07-20T11:34:14;17.03;68.73
70214;DHT22;60138;55.808;37.078;2023-07-20T11:36:45;17.14;68.75
70214;DHT22;60138;55.808;37.078;2023-07-20T11:39:13;17.41;69.16
70214;DHT22;60138;55.808;37.078;2023-07-20T11:41:50;17.72;68.30
70214;DHT22;60138;55.808;37.078;2023-07-20T11:44:17;18.13;67.52
70214;DHT22;60138;55.808;37.078;2023-07-20T11:46:43;18.53;67.37
70214;DHT22;60138;55.808;37.078;2023-07-20T11:49:10;19.35;67.24
70214;DHT22;60138;55.808;37.078;2023-07-20T11:51:36;21.61;65.00
70214;DHT22;60138;55.808;37.078;2023-07-20T11:54:03;24.01;59.54
70214;DHT22;60138;55.808;37.078;2023-07-20T11:56:29;25.87;55.87
70214;DHT22;60138;55.808;37.078;2023-07-20T11:58:56;27.40;54.17
70214;DHT22;60138;55.808;37.078;2023-07-20T12:01:23;26.50;54.87
70214;DHT22;60138;55.808;37.078;2023-07-20T12:03:49;25.45;53.17
70214;DHT22;60138;55.808;37.078;2023-07-20T12:06:15;24.65;50.49
70214;DHT22;60138;55.808;37.078;2023-07-20T12:08:42;23.98;53.68
70214;DHT22;60138;55.808;37.078;2023-07-20T12:11:08;23.52;55.92
70214;DHT22;60138;55.808;37.078;2023-07-20T12:13:38;23.12;53.88
70214;DHT22;60138;55.808;37.078;2023-07-20T12:16:15;22.62;54.64
70214;DHT22;60138;55.808;37.078;2023-07-20T12:18:44;22.52;55.90
70214;DHT22;60138;55.808;37.078;2023-07-20T12:21:10;22.66;52.76
70214;DHT22;60138;55.808;37.078;2023-07-20T12:23:40;22.68;50.44
70214;DHT22;60138;55.808;37.078;2023-07-20T12:26:10;22.81;48.68
70214;DHT22;60138;55.808;37.078;2023-07-20T12:28:39;23.24;49.39
70214;DHT22;60138;55.808;37.078;2023-07-20T12:31:05;25.73;47.12
70214;DHT22;60138;55.808;37.078;2023-07-20T12:33:30;27.75;47.42
70214;DHT22;60138;55.808;37.078;2023-07-20T12:35:56;29.49;45.54
70214;DHT22;60138;55.808;37.078;2023-07-20T12:38:22;31.00;34.71
70214;DHT22;60138;55.808;37.078;2023-07-20T12:40:48;31.60;27.18
70214;DHT22;60138;55.808;37.078;2023-07-20T12:43:14;31.02;28.27
70214;DHT22;60138;55.808;37.078;2023-07-20T12:45:41;30.69;28.76
70214;DHT22;60138;55.808;37.078;2023-07-20T12:48:07;31.51;30.16
70214;DHT22;60138;55.808;37.078;2023-07-20T12:50:33;32.32;29.24
70214;DHT22;60138;55.808;37.078;2023-07-20T12:52:59;31.37;27.15
70214;DHT22;60138;55.808;37.078;2023-07-20T12:55:25;31.36;31.19
70214;DHT22;60138;55.808;37.078;2023-07-20T12:57:51;29.93;29.22
70214;DHT22;60138;55.808;37.078;2023-07-20T13:00:17;28.33;33.54
70214;DHT22;60138;55.808;37.078;2023-07-20T13:02:47;26.66;38.64
70214;DHT22;60138;55.808;37.078;2023-07-20T13:05:14;25.36;39.95
70214;DHT22;60138;55.808;37.078;2023-07-20T13:07:42;25.16;40.38
70214;DHT22;60138;55.808;37.078;2023-07-20T13:10:09;25.60;39.61
70214;DHT22;60138;55.808;37.078;2023-07-20T13:12:37;25.33;41.74
70214;DHT22;60138;55.808;37.078;2023-07-20T13:15:08;24.53;42.87
70214;DHT22;60138;55.808;37.078;2023-07-20T13:17:35;24.12;43.22
70214;DHT22;60138;55.808;37.078;2023-07-20T13:20:02;23.79;44.35
70214;DHT22;60138;55.808;37.078;2023-07-20T13:22:30;23.13;43.67
70214;DHT22;60138;55.808;37.078;2023-07-20T13:24:55;22.76;45.11
70214;DHT22;60138;55.808;37.078;2023-07-20T13:27:21;22.48;45.53
70214;DHT22;60138;55.808;37.078;2023-07-20T13:29:47;22.33;46.73
70214;DHT22;60138;55.808;37.078;2023-07-20T13:32:14;22.22;47.02
70214;DHT22;60138;55.808;37.078;2023-07-20T13:34:40;22.14;46.70
70214;DHT22;60138;55.808;37.078;2023-07-20T13:37:06;22.07;48.28
70214;DHT22;60138;55.808;37.078;2023-07-20T13:39:32;22.25;47.78
70214;DHT22;60138;55.808;37.078;2023-07-20T13:41:57;22.32;47.18
70214;DHT22;60138;55.808;37.078;2023-07-20T13:44:23;22.37;47.91
70214;DHT22;60138;55.808;37.078;2023-07-20T13:46:50;22.49;48.44
70214;DHT22;60138;55.808;37.078;2023-07-20T13:49:16;22.21;48.31
70214;DHT22;60138;55.808;37.078;2023-07-20T13:51:42;21.66;48.54
70214;DHT22;60138;55.808;37.078;2023-07-20T13:54:08;21.33;49.36
70214;DHT22;60138;55.808;37.078;2023-07-20T13:56:35;21.21;49.98
70214;DHT22;60138;55.808;37.078;2023-07-20T13:59:01;20.83;50.33
70214;DHT22;60138;55.808;37.078;2023-07-20T14:01:27;20.74;50.81
70214;DHT22;60138;55.808;37.078;2023-07-20T14:03:53;20.78;51.04
70214;DHT22;60138;55.808;37.078;2023-07-20T14:06:19;21.25;49.73
70214;DHT22;60138;55.808;37.078;2023-07-20T14:08:44;22.28;47.97
70214;DHT22;60138;55.808;37.078;2023-07-20T14:11:10;22.48;48.83
70214;DHT22;60138;55.808;37.078;2023-07-20T14:13:36;22.61;48.41
70214;DHT22;60138;55.808;37.078;2023-07-20T14:16:02;22.37;45.90
70214;DHT22;60138;55.808;37.078;2023-07-20T14:18:28;22.40;47.14
70214;DHT22;60138;55.808;37.078;2023-07-20T14:20:53;23.67;44.58
70214;DHT22;60138;55.808;37.078;2023-07-20T14:23:19;24.97;40.30
70214;DHT22;60138;55.808;37.078;2023-07-20T14:25:45;26.31;41.49
70214;DHT22;60138;55.808;37.078;2023-07-20T14:28:11;27.57;35.45
70214;DHT22;60138;55.808;37.078;2023-07-20T14:30:36;28.34;38.61
70214;DHT22;60138;55.808;37.078;2023-07-20T14:33:02;29.37;30.10
70214;DHT22;60138;55.808;37.078;2023-07-20T14:35:28;29.86;28.16
70214;DHT22;60138;55.808;37.078;2023-07-20T14:37:54;29.97;25.52
70214;DHT22;60138;55.808;37.078;2023-07-20T14:40:21;29.82;28.83
70214;DHT22;60138;55.808;37.078;2023-07-20T14:42:50;29.85;32.76
70214;DHT22;60138;55.808;37.078;2023-07-20T14:45:16;29.36;24.64
70214;DHT22;60138;55.808;37.078;2023-07-20T14:47:42;29.66;24.46
70214;DHT22;60138;55.808;37.078;2023-07-20T14:50:08;29.64;29.81
70214;DHT22;60138;55.808;37.078;2023-07-20T14:52:37;29.57;24.31
70214;DHT22;60138;55.808;37.078;2023-07-20T14:55:03;29.49;24.46
70214;DHT22;60138;55.808;37.078;2023-07-20T14:57:31;29.82;26.52
70214;DHT22;60138;55.808;37.078;2023-07-20T14:59:57;29.94;28.18
70214;DHT22;60138;55.808;37.078;2023-07-20T15:02:23;29.86;24.01
70214;DHT22;60138;55.808;37.078;2023-07-20T15:04:50;29.89;24.35
70214;DHT22;60138;55.808;37.078;2023-07-20T15:07:17;30.16;28.88
70214;DHT22;60138;55.808;37.078;2023-07-20T15:09:43;30.26;23.95
70214;DHT22;60138;55.808;37.078;2023-07-20T15:12:10;30.00;22.95
70214;DHT22;60138;55.808;37.078;2023-07-20T15:14:39;30.11;28.48
70214;DHT22;60138;55.808;37.078;2023-07-20T15:17:05;30.22;28.61
70214;DHT22;60138;55.808;37.078;2023-07-20T15:19:31;30.09;27.99
70214;DHT22;60138;55.808;37.078;2023-07-20T15:21:57;29.33;27.82
70214;DHT22;60138;55.808;37.078;2023-07-20T15:24:23;28.09;28.44
70214;DHT22;60138;55.808;37.078;2023-07-20T15:26:48;27.05;29.80
70214;DHT22;60138;55.808;37.078;2023-07-20T15:29:14;25.99;31.77